ADDS METAR Data INFO
IDs: Format: Raw Decoded Include TAF

Data at: 2243 UTC 16 Jan 2018

KVTI 162235Z AUTO 29008KT CLR M12/M16 A3063 RMK AO2 T11201165 PWINO
KVTI 162215Z AUTO 29008KT CLR M12/M17 A3063 RMK AO2 T11201166 PWINO
KVTI 162155Z AUTO 30011KT CLR M12/M17 A3062 RMK AO2 T11201170 PWINO
KVTI 162135Z AUTO 28011KT CLR M11/M16 A3062 RMK AO2 T11121162 PWINO
KVTI 162115Z AUTO 28010KT CLR M11/M16 A3062 RMK AO2 T11081160 PWINO
KVTI 162055Z AUTO 29010KT CLR M10/M16 A3062 RMK AO2 T11051157 PWINO
KVTI 162035Z AUTO 33011G14KT CLR M10/M16 A3062 RMK AO2 T11051160 PWINO
KVTI 162015Z AUTO 32009KT CLR M10/M16 A3061 RMK AO2 T11051160 PWINO
KVTI 161955Z AUTO 32011KT CLR M10/M16 A3061 RMK AO2 T11051158 PWINO
KVTI 161935Z AUTO 29011KT CLR M10/M16 A3062 RMK AO2 T11051157 PWINO
KVTI 161915Z AUTO 31007KT CLR M10/M15 A3062 RMK AO2 T11051153 PWINO
KVTI 161855Z AUTO 32010KT CLR M10/M15 A3061 RMK AO2 T11051154 PWINO
KVTI 161835Z AUTO 32009KT SCT002 M11/M16 A3062 RMK AO2 T11121157 PWINO
KVTI 161815Z AUTO 33011KT SCT002 M12/M16 A3063 RMK AO2 T11201163 PWINO
KVTI 161755Z AUTO 33009G15KT SCT002 M12/M16 A3063 RMK AO2 T11201161 11120 21160 PWINO
KVTI 161735Z AUTO 32008KT BKN002 BKN009 BKN038 M12/M16 A3064 RMK AO2 T11201163 PWINO
KVTI 161715Z AUTO 31010G14KT BKN002 OVC009 M13/M17 A3064 RMK AO2 T11331173 PWINO
KVTI 161655Z AUTO 31006KT BKN002 BKN013 BKN027 M13/M17 A3065 RMK AO2 T11331172 PWINO
KVTI 161635Z AUTO 31008KT SCT002 SCT008 BKN013 M14/M18 A3065 RMK AO2 T11371176 PWINO
KVTI 161615Z AUTO 31007KT SCT002 SCT008 BKN013 M14/M18 A3064 RMK AO2 T11401179 PWINO
KVTI 161555Z AUTO 31007KT SCT002 BKN011 M15/M18 A3064 RMK AO2 T11461184 PWINO
KVTI 161535Z AUTO 30008KT OVC011 M15/M19 A3063 RMK AO2 T11491188 PWINO
KVTI 161515Z AUTO 30007KT SCT001 SCT006 BKN011 M15/M19 A3062 RMK AO2 T11531191 PWINO
KVTI 161455Z AUTO 31006KT SCT001 SCT006 M15/M19 A3062 RMK AO2 T11551192 PWINO
KVTI 161435Z AUTO 31008KT SCT018 M16/M20 A3061 RMK AO2 T11581196 PWINO
KVTI 161415Z AUTO 31009KT BKN016 M16/M20 A3060 RMK AO2 T11601198 PWINO
KVTI 161355Z AUTO 32008KT BKN016 M16/M20 A3060 RMK AO2 T11601200 PWINO
KVTI 161335Z AUTO 32009G15KT OVC014 M16/M20 A3060 RMK AO2 T11601199 PWINO
KVTI 161315Z AUTO 31008KT OVC014 M16/M19 A3059 RMK AO2 T11571195 PWINO
KVTI 161255Z AUTO 31008KT OVC014 M16/M19 A3058 RMK AO2 T11581195 PWINO
KVTI 161235Z AUTO 32008KT OVC016 M16/M20 A3057 RMK AO2 T11601196 PWINO
KVTI 161215Z AUTO 33007KT OVC014 M16/M20 A3057 RMK AO2 T11601197 PWINO
KVTI 161155Z AUTO 32008KT SCT002 OVC014 M16/M20 A3057 RMK AO2 T11601196 11160 21196 PWINO
KVTI 161135Z AUTO 31008KT SCT002 BKN014 M16/M20 A3056 RMK AO2 T11611197 PWINO
KVTI 161115Z AUTO 32009KT OVC014 M16/M20 A3056 RMK AO2 T11611197 PWINO
KVTI 161055Z AUTO 31007KT OVC014 M17/M20 A3056 RMK AO2 T11671203 PWINO
KVTI 161035Z AUTO 31005KT BKN014 M17/M20 A3055 RMK AO2 T11681202 PWINO
KVTI 161015Z AUTO 30006KT SCT001 BKN014 M17/M21 A3055 RMK AO2 T11751210 PWINO
KVTI 160955Z AUTO 30009KT SCT001 SCT006 SCT014 M17/M21 A3054 RMK AO2 T11751210 PWINO
KVTI 160935Z AUTO 29008KT BKN001 BKN006 OVC014 M17/M21 A3054 RMK AO2 T11751210 PWINO
KVTI 160915Z AUTO 30008KT OVC001 M18/M22 A3054 RMK AO2 T11831218 PWINO
KVTI 160855Z AUTO 30009KT SCT001 OVC032 M19/M22 A3054 RMK AO2 T11901225 PWINO
KVTI 160835Z AUTO 30007KT OVC032 M19/M22 A3053 RMK AO2 T11901225 PWINO
KVTI 160815Z AUTO 30009KT M20/M23 A3052 RMK AO2 SKY OBSCURED T11961231 PWINO
KVTI 160755Z AUTO 30012KT M19/M23 A3052 RMK AO2 SKY OBSCURED T11901226 PWINO
KVTI 160735Z AUTO 30012G18KT M19/M22 A3052 RMK AO2 SKY OBSCURED T11901225 PWINO
KVTI 160715Z AUTO 30012KT BKN002 OVC007 M19/M22 A3052 RMK AO2 T11901225 PWINO
KVTI 160655Z AUTO 30013G17KT BKN002 BKN005 OVC036 M19/M22 A3051 RMK AO2 T11901225 PWINO
KVTI 160635Z AUTO 30011G16KT BKN001 OVC005 M19/M22 A3051 RMK AO2 T11901225 PWINO
KVTI 160615Z AUTO 30011G16KT SCT001 OVC005 M19/M22 A3051 RMK AO2 T11901225 PWINO
KVTI 160555Z AUTO 30013G19KT BKN002 OVC007 M19/M22 A3051 RMK AO2 T11901225 11167 21190 410451190 PWINO
KVTI 160535Z AUTO 29013G17KT BKN001 BKN007 M19/M22 A3052 RMK AO2 T11901225 PWINO
KVTI 160515Z AUTO 29012G16KT BKN001 BKN007 M19/M22 A3051 RMK AO2 T11901225 PWINO
KVTI 160455Z AUTO 29010G18KT OVC005 M19/M22 A3050 RMK AO2 T11901225 PWINO
KVTI 160435Z AUTO 30012G17KT BKN003 OVC007 M19/M22 A3050 RMK AO2 T11861222 PWINO
KVTI 160415Z AUTO 30014G18KT BKN003 OVC008 M18/M22 A3050 RMK AO2 T11811218 PWINO
KVTI 160355Z AUTO 30012G22KT BKN003 OVC008 M18/M22 A3049 RMK AO2 T11801218 PWINO
KVTI 160335Z AUTO 30016G20KT BKN002 OVC007 M18/M22 A3048 RMK AO2 T11801218 PWINO
KVTI 160315Z AUTO 30013G19KT BKN002 OVC007 M18/M22 A3048 RMK AO2 T11781216 PWINO
KVTI 160255Z AUTO 30013G21KT SCT002 BKN007 M17/M21 A3048 RMK AO2 T11751215 PWINO
KVTI 160235Z AUTO 30015G22KT SCT002 M17/M22 A3048 RMK AO2 T11751216 PWINO
KVTI 160215Z AUTO 30012G20KT SCT002 BKN008 M17/M21 A3048 RMK AO2 T11751215 PWINO
KVTI 160155Z AUTO 30014G18KT BKN004 OVC008 M17/M21 A3048 RMK AO2 T11751212 PWINO
KVTI 160135Z AUTO 30011G19KT BKN006 BKN011 M17/M21 A3048 RMK AO2 T11751207 PWINO
KVTI 160115Z AUTO 30012G16KT SCT005 SCT010 M17/M21 A3047 RMK AO2 T11741206 PWINO
KVTI 160055Z AUTO 30014G18KT OVC005 M17/M20 A3046 RMK AO2 T11701203 PWINO
KVTI 160035Z AUTO 30014G19KT OVC005 M17/M20 A3046 RMK AO2 T11681205 PWINO
KVTI 160015Z AUTO 30014G19KT OVC007 M17/M20 A3045 RMK AO2 T11681202 PWINO
KVTI 152355Z AUTO 29012G19KT BKN007 OVC011 M17/M20 A3045 RMK AO2 T11661199 11129 21167 PWINO
KVTI 152335Z AUTO 29012G17KT BKN006 OVC011 M16/M19 A3044 RMK AO2 T11611195 PWINO
KVTI 152315Z AUTO 29014G18KT SCT003 OVC006 M16/M20 A3043 RMK AO2 T11611196 PWINO
KVTI 152255Z AUTO 30016G22KT SCT002 BKN006 OVC012 M16/M20 A3042 RMK AO2 T11581198 PWINO
KVTI 152235Z AUTO 29014G21KT OVC006 M15/M19 A3041 RMK AO2 T11551190 PWINO
KVTI 152215Z AUTO 30016G22KT SCT002 BKN007 BKN011 M15/M19 A3040 RMK AO2 T11521194 PWINO
KVTI 152155Z AUTO 30012G23KT BKN004 OVC008 M15/M19 A3039 RMK AO2 T11471186 PWINO
KVTI 152135Z AUTO 30013G24KT BKN006 OVC010 M14/M18 A3038 RMK AO2 T11421181 PWINO
KVTI 152115Z AUTO 30017G24KT SCT005 OVC010 M14/M18 A3037 RMK AO2 T11361182 PWINO
KVTI 152055Z AUTO 29018G22KT BKN006 OVC010 M13/M17 A3035 RMK AO2 T11331172 PWINO
KVTI 152035Z AUTO 29017G22KT OVC006 M13/M17 A3035 RMK AO2 T11331172 PWINO
KVTI 152015Z AUTO 30016G22KT SCT001 OVC006 M13/M17 A3033 RMK AO2 T11331172 PWINO
KVTI 151955Z AUTO 30019G24KT BKN006 OVC010 M13/M17 A3032 RMK AO2 T11331174 PWINO
KVTI 151935Z AUTO 30013G22KT BKN004 OVC009 M13/M17 A3032 RMK AO2 T11321175 PWINO
KVTI 151915Z AUTO 30016G25KT BKN005 OVC010 M13/M18 A3032 RMK AO2 T11331176 PWINO
KVTI 151855Z AUTO 30014G23KT OVC007 M13/M18 A3032 RMK AO2 T11321177 PWINO
KVTI 151835Z AUTO 30017G25KT BKN005 OVC010 M13/M17 A3032 RMK AO2 T11331175 PWINO
KVTI 151815Z AUTO 30016G25KT OVC006 M13/M17 A3032 RMK AO2 T11331171 PWINO
KVTI 151755Z AUTO 29018G23KT OVC006 M13/M17 A3033 RMK AO2 T11331170 11120 21153 PWINO
KVTI 151735Z AUTO 30015G21KT OVC006 M14/M17 A3033 RMK AO2 T11391173 PWINO
KVTI 151715Z AUTO 30018G24KT OVC006 M15/M18 A3032 RMK AO2 T11461184 PWINO
KVTI 151655Z AUTO 30015G23KT OVC006 M15/M18 A3032 RMK AO2 T11461184 PWINO
KVTI 151615Z AUTO 29017G23KT OVC008 M15/M18 A3030 RMK AO2 T11471183 PWINO
KVTI 151555Z AUTO 30013G21KT OVC008 M15/M19 A3030 RMK AO2 T11501187 PWINO
KVTI 151535Z AUTO 30019G24KT OVC008 M15/M19 A3028 RMK AO2 T11521188 PWINO
KVTI 151515Z AUTO 30016G24KT OVC006 M15/M19 A3028 RMK AO2 T11511188 PWINO
KVTI 151455Z AUTO 30016G21KT BKN006 OVC010 M15/M18 A3026 RMK AO2 T11471180 PWINO
KVTI 151435Z AUTO 30017G24KT OVC008 M14/M17 A3026 RMK AO2 T11381171 PWINO
KVTI 151415Z AUTO 30016G22KT OVC008 M13/M17 A3025 RMK AO2 T11331166 PWINO
KVTI 151355Z AUTO 29019G24KT OVC008 M13/M17 A3023 RMK AO2 T11331166 PWINO
KVTI 151335Z AUTO 29014G21KT BKN005 BKN010 OVC035 M13/M17 A3023 RMK AO2 T11331168 PWINO
KVTI 151315Z AUTO 30013G22KT BKN007 OVC012 M13/M16 A3022 RMK AO2 T11331165 PWINO
KVTI 151255Z AUTO 30011G21KT SCT004 BKN009 OVC012 M12/M15 A3022 RMK AO2 T11201154 PWINO
KVTI 151235Z AUTO 30014G17KT BKN004 BKN009 OVC029 M12/M15 A3021 RMK AO2 T11201151 PWINO
KVTI 151215Z AUTO 30014G20KT SCT006 BKN009 OVC031 M12/M15 A3020 RMK AO2 T11201155 PWINO
KVTI 151155Z AUTO 30010G21KT OVC029 M12/M16 A3019 RMK AO2 T11201158 11045 21133 PWINO
KVTI 151135Z AUTO 31009G18KT OVC029 M12/M15 A3018 RMK AO2 T11201150 PWINO
KVTI 151115Z AUTO 30011G14KT SCT001 SCT008 OVC027 M13/M16 A3017 RMK AO2 T11271158 PWINO
KVTI 151055Z AUTO 30009KT BKN025 M13/M17 A3016 RMK AO2 T11331166 PWINO